Aeroporto :
LOGIN :

Iscrizione | Disclaimer

   EN    FR    IT 

 










Sommario :    VFR   VFR Marginale   IFR   IFR Intensivo   IFR Molto Intensivo
Visibilità : 
Base nubi : 
>= 8 km
>= 3000ft
5 / 8 km
1000 / 3000 ft
1500m / 5 km
500 / 1000 ft
800 / 1500m
200 / 500 ft
< 800m
< 200 ft
Simboli :   Temporali  Nebbia  Neve Forte  Precipitazioni Forti  Vento > 20 kt
SIGMETs :   Varie  Temporali  Ghiacco  Turbolenza  Onda orograficha  Ceneri Vulcaniche







- Altitudine del aeroporto : 436 ft
- Codice IATA : ANG
- Carte del aeroporto


LFBU - Angoulême Brie Champniers

ULTIMO METAR :
  • 250430Z AUTO 24006KT 5000 BR OVC003 18/17 Q1018

METARs OBSOLETI :
  • 250400Z AUTO 25006KT 4100 BR OVC002 18/17 Q1018
  • 250330Z AUTO 24007KT 210V270 2000 BR VV/// 18/17 Q1018
  • 250300Z AUTO 24005KT 2200 BR BKN002 18/17 Q1017
  • 250230Z AUTO 22003KT 190V250 CAVOK 18/17 Q1017
  • 250200Z AUTO 25006KT 7000 NSC 19/16 Q1017

TAF TAF LFBU
Valido dal 24 a 18 ore il 25 a 18 ore UTC


241700Z 2418/2518 25008KT CAVOK
PROB40 2503/2507 4000 BR OVC005
Nessun NOTAM noto per questo aeroporto.



MetMap, La meteo Aeronautica in un colpo d'occhio ! - Copyright ORBIFLY Dicembre 2007 - Disclaimer

ORBIFLY MET'MAP TEAM :

Programmazione e sviluppo : Alexandra Zaïnal
Concezione e sviluppo : Baudouin d'Aumeries
Co-Programmazione e sviluppo : Marc-Olivier Méhu
Supporto tecnico e logistico : Manuel Goepfert
Aiuto per la traduzione : Arnaldo La Scala

Contatto : metmap@orbifly.com




FONTI E CREDITI :

   NOAA